sensor_id;sensor_type;location;lat;lon;timestamp;temperature;humidity
30385;DHT22;17181;51.002;4.096;2022-08-04T00:00:11;23.30;80.90
30385;DHT22;17181;51.002;4.096;2022-08-04T00:03:10;23.20;81.00
30385;DHT22;17181;51.002;4.096;2022-08-04T00:05:48;23.20;81.20
30385;DHT22;17181;51.002;4.096;2022-08-04T00:11:14;23.10;81.40
30385;DHT22;17181;51.002;4.096;2022-08-04T00:13:43;23.00;81.80
30385;DHT22;17181;51.002;4.096;2022-08-04T00:16:13;23.00;82.10
30385;DHT22;17181;51.002;4.096;2022-08-04T00:18:44;23.00;82.40
30385;DHT22;17181;51.002;4.096;2022-08-04T00:21:15;22.90;82.40
30385;DHT22;17181;51.002;4.096;2022-08-04T00:23:44;22.80;82.60
30385;DHT22;17181;51.002;4.096;2022-08-04T00:26:11;22.70;82.60
30385;DHT22;17181;51.002;4.096;2022-08-04T00:28:37;22.80;83.10
30385;DHT22;17181;51.002;4.096;2022-08-04T00:31:04;22.70;83.50
30385;DHT22;17181;51.002;4.096;2022-08-04T00:33:31;22.60;83.80
30385;DHT22;17181;51.002;4.096;2022-08-04T00:35:58;22.60;84.20
30385;DHT22;17181;51.002;4.096;2022-08-04T00:38:25;22.60;84.30
30385;DHT22;17181;51.002;4.096;2022-08-04T00:43:59;22.60;84.60
30385;DHT22;17181;51.002;4.096;2022-08-04T01:00:47;22.40;87.10
30385;DHT22;17181;51.002;4.096;2022-08-04T01:03:36;22.40;87.40
30385;DHT22;17181;51.002;4.096;2022-08-04T01:14:49;22.40;87.60
30385;DHT22;17181;51.002;4.096;2022-08-04T01:20:04;22.40;88.10
30385;DHT22;17181;51.002;4.096;2022-08-04T01:30:27;22.40;89.70
30385;DHT22;17181;51.002;4.096;2022-08-04T01:33:03;22.30;90.20
30385;DHT22;17181;51.002;4.096;2022-08-04T01:35:43;22.40;90.00
30385;DHT22;17181;51.002;4.096;2022-08-04T01:40:51;22.20;90.30
30385;DHT22;17181;51.002;4.096;2022-08-04T01:43:19;22.20;90.40
30385;DHT22;17181;51.002;4.096;2022-08-04T01:45:50;22.20;90.40
30385;DHT22;17181;51.002;4.096;2022-08-04T01:48:23;22.30;90.50
30385;DHT22;17181;51.002;4.096;2022-08-04T01:50:52;22.20;90.40
30385;DHT22;17181;51.002;4.096;2022-08-04T01:53:19;22.30;90.50
30385;DHT22;17181;51.002;4.096;2022-08-04T01:55:47;22.30;90.60
30385;DHT22;17181;51.002;4.096;2022-08-04T01:58:17;22.20;90.60
30385;DHT22;17181;51.002;4.096;2022-08-04T02:00:56;22.20;90.70
30385;DHT22;17181;51.002;4.096;2022-08-04T02:03:23;22.20;90.80
30385;DHT22;17181;51.002;4.096;2022-08-04T02:05:50;22.10;90.70
30385;DHT22;17181;51.002;4.096;2022-08-04T02:08:28;22.10;90.80
30385;DHT22;17181;51.002;4.096;2022-08-04T02:11:20;22.00;90.80
30385;DHT22;17181;51.002;4.096;2022-08-04T02:16:48;21.90;90.90
30385;DHT22;17181;51.002;4.096;2022-08-04T02:19:31;21.90;91.10
30385;DHT22;17181;51.002;4.096;2022-08-04T02:22:08;21.90;91.20
30385;DHT22;17181;51.002;4.096;2022-08-04T02:24:45;21.60;91.20
30385;DHT22;17181;51.002;4.096;2022-08-04T02:27:14;21.90;91.30
30385;DHT22;17181;51.002;4.096;2022-08-04T02:29:50;21.80;91.20
30385;DHT22;17181;51.002;4.096;2022-08-04T02:32:26;21.80;91.30
30385;DHT22;17181;51.002;4.096;2022-08-04T02:35:03;21.80;91.40
30385;DHT22;17181;51.002;4.096;2022-08-04T02:37:34;21.70;91.30
30385;DHT22;17181;51.002;4.096;2022-08-04T02:40:05;21.60;91.30
30385;DHT22;17181;51.002;4.096;2022-08-04T02:42:32;21.60;91.40
30385;DHT22;17181;51.002;4.096;2022-08-04T02:44:59;21.50;91.30
30385;DHT22;17181;51.002;4.096;2022-08-04T02:47:27;21.40;91.40
30385;DHT22;17181;51.002;4.096;2022-08-04T02:49:56;21.40;91.50
30385;DHT22;17181;51.002;4.096;2022-08-04T02:52:23;21.30;91.60
30385;DHT22;17181;51.002;4.096;2022-08-04T02:54:55;21.30;91.70
30385;DHT22;17181;51.002;4.096;2022-08-04T02:57:26;21.30;91.70
30385;DHT22;17181;51.002;4.096;2022-08-04T03:00:07;21.40;91.80
30385;DHT22;17181;51.002;4.096;2022-08-04T03:05:31;21.10;92.10
30385;DHT22;17181;51.002;4.096;2022-08-04T03:08:14;21.10;92.00
30385;DHT22;17181;51.002;4.096;2022-08-04T03:11:09;21.00;92.10
30385;DHT22;17181;51.002;4.096;2022-08-04T03:14:04;21.00;92.20
30385;DHT22;17181;51.002;4.096;2022-08-04T03:30:22;20.70;92.40
30385;DHT22;17181;51.002;4.096;2022-08-04T03:44:40;20.60;93.20
30385;DHT22;17181;51.002;4.096;2022-08-04T03:47:22;20.50;93.30
30385;DHT22;17181;51.002;4.096;2022-08-04T03:50:03;20.50;93.30
30385;DHT22;17181;51.002;4.096;2022-08-04T03:55:48;20.50;93.40
30385;DHT22;17181;51.002;4.096;2022-08-04T04:04:40;20.40;93.70
30385;DHT22;17181;51.002;4.096;2022-08-04T04:15:36;20.30;93.90
30385;DHT22;17181;51.002;4.096;2022-08-04T04:18:14;20.30;94.00
30385;DHT22;17181;51.002;4.096;2022-08-04T04:23:25;20.20;94.20
30385;DHT22;17181;51.002;4.096;2022-08-04T04:26:11;20.20;94.30
30385;DHT22;17181;51.002;4.096;2022-08-04T04:34:52;20.10;94.50
30385;DHT22;17181;51.002;4.096;2022-08-04T04:37:36;20.10;94.50
30385;DHT22;17181;51.002;4.096;2022-08-04T04:46:02;20.10;94.80
30385;DHT22;17181;51.002;4.096;2022-08-04T04:48:56;20.10;94.90
30385;DHT22;17181;51.002;4.096;2022-08-04T04:51:32;20.10;95.00
30385;DHT22;17181;51.002;4.096;2022-08-04T04:54:07;20.10;95.00
30385;DHT22;17181;51.002;4.096;2022-08-04T04:56:44;20.10;95.20
30385;DHT22;17181;51.002;4.096;2022-08-04T04:59:14;20.10;95.30
30385;DHT22;17181;51.002;4.096;2022-08-04T05:01:57;20.10;95.40
30385;DHT22;17181;51.002;4.096;2022-08-04T05:13:18;20.20;96.00
30385;DHT22;17181;51.002;4.096;2022-08-04T05:15:49;20.20;96.00
30385;DHT22;17181;51.002;4.096;2022-08-04T05:18:23;20.20;96.10
30385;DHT22;17181;51.002;4.096;2022-08-04T05:21:18;20.30;96.20
30385;DHT22;17181;51.002;4.096;2022-08-04T05:23:48;20.40;96.30
30385;DHT22;17181;51.002;4.096;2022-08-04T05:26:23;20.40;96.30
30385;DHT22;17181;51.002;4.096;2022-08-04T05:28:56;20.40;96.40
30385;DHT22;17181;51.002;4.096;2022-08-04T05:31:28;20.40;96.50
30385;DHT22;17181;51.002;4.096;2022-08-04T05:34:07;20.50;96.90
30385;DHT22;17181;51.002;4.096;2022-08-04T05:36:41;20.50;96.80
30385;DHT22;17181;51.002;4.096;2022-08-04T05:39:16;20.60;96.80
30385;DHT22;17181;51.002;4.096;2022-08-04T05:41:43;20.70;96.90
30385;DHT22;17181;51.002;4.096;2022-08-04T05:44:10;20.70;96.90
30385;DHT22;17181;51.002;4.096;2022-08-04T05:46:37;20.80;97.10
30385;DHT22;17181;51.002;4.096;2022-08-04T05:49:04;20.90;97.20
30385;DHT22;17181;51.002;4.096;2022-08-04T05:51:31;20.80;97.20
30385;DHT22;17181;51.002;4.096;2022-08-04T05:53:59;21.00;97.40
30385;DHT22;17181;51.002;4.096;2022-08-04T05:56:25;21.10;97.60
30385;DHT22;17181;51.002;4.096;2022-08-04T05:58:52;21.20;97.70
30385;DHT22;17181;51.002;4.096;2022-08-04T06:01:19;21.30;97.70
30385;DHT22;17181;51.002;4.096;2022-08-04T06:03:47;21.30;97.60
30385;DHT22;17181;51.002;4.096;2022-08-04T06:06:16;21.40;97.80
30385;DHT22;17181;51.002;4.096;2022-08-04T06:08:44;21.40;97.70
30385;DHT22;17181;51.002;4.096;2022-08-04T06:11:13;21.60;97.90
30385;DHT22;17181;51.002;4.096;2022-08-04T06:13:50;21.70;98.10
30385;DHT22;17181;51.002;4.096;2022-08-04T06:16:22;21.70;98.20
30385;DHT22;17181;51.002;4.096;2022-08-04T06:18:50;21.80;98.30
30385;DHT22;17181;51.002;4.096;2022-08-04T06:21:20;21.80;98.40
30385;DHT22;17181;51.002;4.096;2022-08-04T06:23:48;21.90;98.80
30385;DHT22;17181;51.002;4.096;2022-08-04T06:26:16;21.90;99.00
30385;DHT22;17181;51.002;4.096;2022-08-04T06:28:52;21.90;99.00
30385;DHT22;17181;51.002;4.096;2022-08-04T06:31:20;22.00;99.00
30385;DHT22;17181;51.002;4.096;2022-08-04T06:34:10;22.00;99.10
30385;DHT22;17181;51.002;4.096;2022-08-04T06:36:38;22.20;99.70
30385;DHT22;17181;51.002;4.096;2022-08-04T06:39:09;22.30;99.70
30385;DHT22;17181;51.002;4.096;2022-08-04T06:41:39;22.40;99.70
30385;DHT22;17181;51.002;4.096;2022-08-04T06:44:09;22.50;99.50
30385;DHT22;17181;51.002;4.096;2022-08-04T06:46:39;22.50;99.70
30385;DHT22;17181;51.002;4.096;2022-08-04T06:49:06;22.70;99.90
30385;DHT22;17181;51.002;4.096;2022-08-04T06:51:34;22.70;99.90
30385;DHT22;17181;51.002;4.096;2022-08-04T06:54:01;22.80;99.90
30385;DHT22;17181;51.002;4.096;2022-08-04T06:56:29;22.70;99.90
30385;DHT22;17181;51.002;4.096;2022-08-04T06:58:57;22.90;99.90
30385;DHT22;17181;51.002;4.096;2022-08-04T07:01:30;23.00;99.90
30385;DHT22;17181;51.002;4.096;2022-08-04T07:03:58;22.90;99.90
30385;DHT22;17181;51.002;4.096;2022-08-04T07:06:25;22.90;99.90
30385;DHT22;17181;51.002;4.096;2022-08-04T07:08:51;22.60;99.90
30385;DHT22;17181;51.002;4.096;2022-08-04T07:11:19;22.80;99.90
30385;DHT22;17181;51.002;4.096;2022-08-04T07:13:45;22.70;99.90
30385;DHT22;17181;51.002;4.096;2022-08-04T07:16:17;22.80;99.90
30385;DHT22;17181;51.002;4.096;2022-08-04T07:18:46;22.80;99.90
30385;DHT22;17181;51.002;4.096;2022-08-04T07:21:22;22.70;99.90
30385;DHT22;17181;51.002;4.096;2022-08-04T07:23:49;22.80;99.90
30385;DHT22;17181;51.002;4.096;2022-08-04T07:26:15;22.70;99.90
30385;DHT22;17181;51.002;4.096;2022-08-04T07:28:47;22.70;99.90
30385;DHT22;17181;51.002;4.096;2022-08-04T07:31:19;22.80;99.90
30385;DHT22;17181;51.002;4.096;2022-08-04T07:33:48;22.80;99.90
30385;DHT22;17181;51.002;4.096;2022-08-04T07:36:15;22.90;99.90
30385;DHT22;17181;51.002;4.096;2022-08-04T07:38:42;23.10;99.90
30385;DHT22;17181;51.002;4.096;2022-08-04T07:41:08;23.00;99.90
30385;DHT22;17181;51.002;4.096;2022-08-04T07:43:35;23.10;99.90
30385;DHT22;17181;51.002;4.096;2022-08-04T07:46:03;23.20;99.90
30385;DHT22;17181;51.002;4.096;2022-08-04T07:48:29;23.40;99.90
30385;DHT22;17181;51.002;4.096;2022-08-04T07:50:55;23.30;99.90
30385;DHT22;17181;51.002;4.096;2022-08-04T07:53:23;23.40;99.90
30385;DHT22;17181;51.002;4.096;2022-08-04T07:55:50;23.40;99.90
30385;DHT22;17181;51.002;4.096;2022-08-04T07:58:17;23.40;99.90
30385;DHT22;17181;51.002;4.096;2022-08-04T08:00:49;23.40;99.90
30385;DHT22;17181;51.002;4.096;2022-08-04T08:03:16;23.40;99.90
30385;DHT22;17181;51.002;4.096;2022-08-04T08:05:47;23.40;99.90
30385;DHT22;17181;51.002;4.096;2022-08-04T08:08:13;23.40;99.90
30385;DHT22;17181;51.002;4.096;2022-08-04T08:10:49;23.40;99.90
30385;DHT22;17181;51.002;4.096;2022-08-04T08:13:19;23.30;99.90
30385;DHT22;17181;51.002;4.096;2022-08-04T08:15:49;23.30;99.90
30385;DHT22;17181;51.002;4.096;2022-08-04T08:18:17;23.30;99.90
30385;DHT22;17181;51.002;4.096;2022-08-04T08:20:44;23.10;99.90
30385;DHT22;17181;51.002;4.096;2022-08-04T08:23:11;22.90;99.90
30385;DHT22;17181;51.002;4.096;2022-08-04T08:25:37;22.90;99.90
30385;DHT22;17181;51.002;4.096;2022-08-04T08:28:04;22.70;99.90
30385;DHT22;17181;51.002;4.096;2022-08-04T08:30:32;22.60;99.90
30385;DHT22;17181;51.002;4.096;2022-08-04T08:33:07;22.70;99.90
30385;DHT22;17181;51.002;4.096;2022-08-04T16:19:30;32.90;57.90
30385;DHT22;17181;51.002;4.096;2022-08-04T16:22:33;32.70;58.10
30385;DHT22;17181;51.002;4.096;2022-08-04T16:25:00;32.70;58.60
30385;DHT22;17181;51.002;4.096;2022-08-04T16:27:41;32.90;58.60
30385;DHT22;17181;51.002;4.096;2022-08-04T16:30:10;33.00;57.80
30385;DHT22;17181;51.002;4.096;2022-08-04T16:32:45;32.50;57.90
30385;DHT22;17181;51.002;4.096;2022-08-04T16:37:53;31.60;58.80
30385;DHT22;17181;51.002;4.096;2022-08-04T16:43:03;30.90;60.10
30385;DHT22;17181;51.002;4.096;2022-08-04T16:48:08;31.10;60.60
30385;DHT22;17181;51.002;4.096;2022-08-04T16:53:19;31.30;60.00
30385;DHT22;17181;51.002;4.096;2022-08-04T16:55:48;31.10;59.80
30385;DHT22;17181;51.002;4.096;2022-08-04T16:58:15;30.80;59.90
30385;DHT22;17181;51.002;4.096;2022-08-04T17:00:41;30.50;60.20
30385;DHT22;17181;51.002;4.096;2022-08-04T17:03:11;30.30;60.90
30385;DHT22;17181;51.002;4.096;2022-08-04T17:05:37;30.00;61.40
30385;DHT22;17181;51.002;4.096;2022-08-04T17:08:06;29.70;61.60
30385;DHT22;17181;51.002;4.096;2022-08-04T17:10:36;29.40;61.80
30385;DHT22;17181;51.002;4.096;2022-08-04T17:13:30;29.40;62.30
30385;DHT22;17181;51.002;4.096;2022-08-04T17:15:58;29.10;62.50
30385;DHT22;17181;51.002;4.096;2022-08-04T17:18:30;29.00;62.60
30385;DHT22;17181;51.002;4.096;2022-08-04T17:21:00;28.90;62.90
30385;DHT22;17181;51.002;4.096;2022-08-04T17:23:44;28.70;62.80
30385;DHT22;17181;51.002;4.096;2022-08-04T17:26:14;28.60;62.90
30385;DHT22;17181;51.002;4.096;2022-08-04T17:28:45;28.40;62.80
30385;DHT22;17181;51.002;4.096;2022-08-04T17:31:11;28.30;63.10
30385;DHT22;17181;51.002;4.096;2022-08-04T17:33:45;28.10;63.50
30385;DHT22;17181;51.002;4.096;2022-08-04T17:36:11;28.10;63.70
30385;DHT22;17181;51.002;4.096;2022-08-04T17:38:47;28.00;64.00
30385;DHT22;17181;51.002;4.096;2022-08-04T17:41:15;27.90;64.10
30385;DHT22;17181;51.002;4.096;2022-08-04T17:43:42;27.70;64.40
30385;DHT22;17181;51.002;4.096;2022-08-04T17:46:22;27.60;64.50
30385;DHT22;17181;51.002;4.096;2022-08-04T17:48:56;27.40;65.00
30385;DHT22;17181;51.002;4.096;2022-08-04T17:51:31;27.40;65.30
30385;DHT22;17181;51.002;4.096;2022-08-04T17:53:57;27.20;65.60
30385;DHT22;17181;51.002;4.096;2022-08-04T17:56:30;27.00;65.80
30385;DHT22;17181;51.002;4.096;2022-08-04T17:59:09;27.10;66.10
30385;DHT22;17181;51.002;4.096;2022-08-04T18:01:53;26.80;66.40
30385;DHT22;17181;51.002;4.096;2022-08-04T18:04:48;26.70;67.00
30385;DHT22;17181;51.002;4.096;2022-08-04T18:07:17;26.50;67.20
30385;DHT22;17181;51.002;4.096;2022-08-04T18:12:30;26.20;68.10
30385;DHT22;17181;51.002;4.096;2022-08-04T18:15:01;26.10;68.20
30385;DHT22;17181;51.002;4.096;2022-08-04T18:17:39;26.00;68.20
30385;DHT22;17181;51.002;4.096;2022-08-04T18:20:15;25.90;68.40
30385;DHT22;17181;51.002;4.096;2022-08-04T18:22:48;25.80;69.40
30385;DHT22;17181;51.002;4.096;2022-08-04T18:25:16;25.70;69.30
30385;DHT22;17181;51.002;4.096;2022-08-04T18:27:55;25.60;69.30
30385;DHT22;17181;51.002;4.096;2022-08-04T18:30:38;25.70;69.80
30385;DHT22;17181;51.002;4.096;2022-08-04T20:07:14;23.80;72.40
30385;DHT22;17181;51.002;4.096;2022-08-04T20:09:40;23.80;72.50
30385;DHT22;17181;51.002;4.096;2022-08-04T20:12:06;23.80;72.80
30385;DHT22;17181;51.002;4.096;2022-08-04T20:14:32;23.80;72.90
30385;DHT22;17181;51.002;4.096;2022-08-04T20:16:58;23.70;73.00
30385;DHT22;17181;51.002;4.096;2022-08-04T20:19:24;23.70;73.10
30385;DHT22;17181;51.002;4.096;2022-08-04T20:21:50;23.70;73.30
30385;DHT22;17181;51.002;4.096;2022-08-04T20:24:15;23.70;73.40
30385;DHT22;17181;51.002;4.096;2022-08-04T20:26:41;23.70;73.60
30385;DHT22;17181;51.002;4.096;2022-08-04T20:29:07;23.60;73.70
30385;DHT22;17181;51.002;4.096;2022-08-04T20:31:33;23.60;73.80
30385;DHT22;17181;51.002;4.096;2022-08-04T20:33:59;23.60;74.00
30385;DHT22;17181;51.002;4.096;2022-08-04T20:36:25;23.60;74.10
30385;DHT22;17181;51.002;4.096;2022-08-04T20:38:51;23.50;74.20
30385;DHT22;17181;51.002;4.096;2022-08-04T20:41:20;23.50;74.40
30385;DHT22;17181;51.002;4.096;2022-08-04T20:43:45;23.50;74.50
30385;DHT22;17181;51.002;4.096;2022-08-04T20:46:11;23.50;74.70
30385;DHT22;17181;51.002;4.096;2022-08-04T20:48:37;23.40;74.60
30385;DHT22;17181;51.002;4.096;2022-08-04T20:51:04;23.40;74.70
30385;DHT22;17181;51.002;4.096;2022-08-04T20:53:30;23.50;74.90
30385;DHT22;17181;51.002;4.096;2022-08-04T20:55:56;23.40;74.90
30385;DHT22;17181;51.002;4.096;2022-08-04T20:58:25;23.40;75.10
30385;DHT22;17181;51.002;4.096;2022-08-04T21:00:50;23.30;75.20
30385;DHT22;17181;51.002;4.096;2022-08-04T21:03:16;23.40;75.40
30385;DHT22;17181;51.002;4.096;2022-08-04T21:05:42;23.40;75.60
30385;DHT22;17181;51.002;4.096;2022-08-04T21:08:08;23.30;75.60
30385;DHT22;17181;51.002;4.096;2022-08-04T21:10:34;23.30;75.80
30385;DHT22;17181;51.002;4.096;2022-08-04T21:12:59;23.20;75.80
30385;DHT22;17181;51.002;4.096;2022-08-04T21:15:25;23.20;76.00
30385;DHT22;17181;51.002;4.096;2022-08-04T21:17:52;23.20;76.40
30385;DHT22;17181;51.002;4.096;2022-08-04T21:20:18;23.20;76.60
30385;DHT22;17181;51.002;4.096;2022-08-04T21:22:47;23.10;77.40
30385;DHT22;17181;51.002;4.096;2022-08-04T21:25:13;23.10;76.80
30385;DHT22;17181;51.002;4.096;2022-08-04T21:27:39;23.10;76.90
30385;DHT22;17181;51.002;4.096;2022-08-04T21:30:05;23.00;77.00
30385;DHT22;17181;51.002;4.096;2022-08-04T21:32:31;23.00;77.10
30385;DHT22;17181;51.002;4.096;2022-08-04T21:34:58;22.90;77.20
30385;DHT22;17181;51.002;4.096;2022-08-04T21:37:25;22.90;77.40
30385;DHT22;17181;51.002;4.096;2022-08-04T21:39:51;22.80;77.50
30385;DHT22;17181;51.002;4.096;2022-08-04T21:42:17;22.80;77.60
30385;DHT22;17181;51.002;4.096;2022-08-04T21:44:42;22.70;78.40
30385;DHT22;17181;51.002;4.096;2022-08-04T21:47:08;22.70;77.90
30385;DHT22;17181;51.002;4.096;2022-08-04T21:49:34;22.60;77.80
30385;DHT22;17181;51.002;4.096;2022-08-04T21:52:00;22.60;77.80
30385;DHT22;17181;51.002;4.096;2022-08-04T21:54:26;22.60;77.90
30385;DHT22;17181;51.002;4.096;2022-08-04T21:56:52;22.60;78.00
30385;DHT22;17181;51.002;4.096;2022-08-04T21:59:18;22.60;78.10
30385;DHT22;17181;51.002;4.096;2022-08-04T22:01:44;22.60;78.10
30385;DHT22;17181;51.002;4.096;2022-08-04T22:04:10;22.50;78.30
30385;DHT22;17181;51.002;4.096;2022-08-04T22:06:36;22.50;78.50
30385;DHT22;17181;51.002;4.096;2022-08-04T22:09:02;22.50;78.60
30385;DHT22;17181;51.002;4.096;2022-08-04T22:14:00;22.50;78.70
30385;DHT22;17181;51.002;4.096;2022-08-04T22:16:26;22.50;78.90
30385;DHT22;17181;51.002;4.096;2022-08-04T22:18:55;22.50;78.80
30385;DHT22;17181;51.002;4.096;2022-08-04T22:21:20;22.50;79.10
30385;DHT22;17181;51.002;4.096;2022-08-04T22:23:46;22.40;79.00
30385;DHT22;17181;51.002;4.096;2022-08-04T22:26:22;22.40;79.10
30385;DHT22;17181;51.002;4.096;2022-08-04T22:28:50;22.40;79.20
30385;DHT22;17181;51.002;4.096;2022-08-04T22:31:16;22.40;79.30
30385;DHT22;17181;51.002;4.096;2022-08-04T22:33:43;22.40;79.40
30385;DHT22;17181;51.002;4.096;2022-08-04T22:36:14;22.40;79.40
30385;DHT22;17181;51.002;4.096;2022-08-04T22:38:40;22.40;79.40
30385;DHT22;17181;51.002;4.096;2022-08-04T22:41:08;22.30;79.50
30385;DHT22;17181;51.002;4.096;2022-08-04T22:43:35;22.30;79.60
30385;DHT22;17181;51.002;4.096;2022-08-04T22:46:23;22.30;79.70
30385;DHT22;17181;51.002;4.096;2022-08-04T22:48:50;22.30;79.90
30385;DHT22;17181;51.002;4.096;2022-08-04T22:51:17;22.30;80.00
30385;DHT22;17181;51.002;4.096;2022-08-04T22:53:43;22.30;80.10
30385;DHT22;17181;51.002;4.096;2022-08-04T22:56:09;22.30;80.20
30385;DHT22;17181;51.002;4.096;2022-08-04T22:58:36;22.30;80.30
30385;DHT22;17181;51.002;4.096;2022-08-04T23:01:01;22.20;80.40
30385;DHT22;17181;51.002;4.096;2022-08-04T23:03:27;22.20;80.60
30385;DHT22;17181;51.002;4.096;2022-08-04T23:05:53;22.20;80.70
30385;DHT22;17181;51.002;4.096;2022-08-04T23:08:19;22.20;81.50
30385;DHT22;17181;51.002;4.096;2022-08-04T23:10:45;22.10;81.00
30385;DHT22;17181;51.002;4.096;2022-08-04T23:13:11;22.10;81.00
30385;DHT22;17181;51.002;4.096;2022-08-04T23:15:38;22.10;81.20
30385;DHT22;17181;51.002;4.096;2022-08-04T23:18:04;22.10;81.30
30385;DHT22;17181;51.002;4.096;2022-08-04T23:20:29;22.00;81.30
30385;DHT22;17181;51.002;4.096;2022-08-04T23:22:55;22.00;81.50
30385;DHT22;17181;51.002;4.096;2022-08-04T23:25:21;22.00;81.70
30385;DHT22;17181;51.002;4.096;2022-08-04T23:27:48;21.90;81.80
30385;DHT22;17181;51.002;4.096;2022-08-04T23:30:14;21.90;82.00
30385;DHT22;17181;51.002;4.096;2022-08-04T23:32:40;21.90;82.10
30385;DHT22;17181;51.002;4.096;2022-08-04T23:35:06;21.90;82.30
30385;DHT22;17181;51.002;4.096;2022-08-04T23:37:32;21.80;82.50
30385;DHT22;17181;51.002;4.096;2022-08-04T23:39:58;21.80;82.50
30385;DHT22;17181;51.002;4.096;2022-08-04T23:42:24;21.80;82.80
30385;DHT22;17181;51.002;4.096;2022-08-04T23:44:50;21.80;83.00
30385;DHT22;17181;51.002;4.096;2022-08-04T23:47:16;21.80;83.30
30385;DHT22;17181;51.002;4.096;2022-08-04T23:49:42;21.80;83.40
30385;DHT22;17181;51.002;4.096;2022-08-04T23:52:08;21.80;83.60
30385;DHT22;17181;51.002;4.096;2022-08-04T23:54:34;21.80;83.70
30385;DHT22;17181;51.002;4.096;2022-08-04T23:56:59;21.80;83.90
30385;DHT22;17181;51.002;4.096;2022-08-04T23:59:25;21.80;84.10
